sensor_id;sensor_type;location;lat;lon;timestamp;pressure;altitude;pressure_sealevel;temperature;humidity
42671;BME280;28283;55.426;37.756;2023-01-31T00:03:54;97506.78;;;-2.38;84.28
42671;BME280;28283;55.426;37.756;2023-01-31T00:08:56;97507.91;;;-2.32;84.53
42671;BME280;28283;55.426;37.756;2023-01-31T00:13:58;97456.13;;;-2.64;84.44
42671;BME280;28283;55.426;37.756;2023-01-31T00:19:00;97506.78;;;-2.38;84.16
42671;BME280;28283;55.426;37.756;2023-01-31T00:24:01;97518.13;;;-2.29;84.50
42671;BME280;28283;55.426;37.756;2023-01-31T00:41:26;97485.72;;;-2.54;84.67
42671;BME280;28283;55.426;37.756;2023-01-31T00:46:28;97497.91;;;-2.45;84.61
42671;BME280;28283;55.426;37.756;2023-01-31T00:51:29;97510.72;;;-2.34;84.34
42671;BME280;28283;55.426;37.756;2023-01-31T00:56:30;97514.50;;;-2.36;84.75
42671;BME280;28283;55.426;37.756;2023-01-31T01:01:31;97501.84;;;-2.49;84.58
42671;BME280;28283;55.426;37.756;2023-01-31T01:06:31;97518.47;;;-2.24;84.47
42671;BME280;28283;55.426;37.756;2023-01-31T01:11:33;97504.81;;;-2.44;84.20
42671;BME280;28283;55.426;37.756;2023-01-31T01:16:36;97542.13;;;-2.32;84.46
42671;BME280;28283;55.426;37.756;2023-01-31T01:21:37;97551.81;;;-2.41;84.73
42671;BME280;28283;55.426;37.756;2023-01-31T01:26:40;97529.00;;;-2.40;85.19
42671;BME280;28283;55.426;37.756;2023-01-31T01:31:40;97554.31;;;-2.31;84.42
42671;BME280;28283;55.426;37.756;2023-01-31T01:36:41;97540.00;;;-2.45;84.92
42671;BME280;28283;55.426;37.756;2023-01-31T01:41:42;97539.66;;;-2.17;84.60
42671;BME280;28283;55.426;37.756;2023-01-31T01:46:43;97516.00;;;-2.42;84.41
42671;BME280;28283;55.426;37.756;2023-01-31T01:51:46;97443.63;;;-2.87;83.96
42671;BME280;28283;55.426;37.756;2023-01-31T01:56:50;97537.53;;;-2.30;84.51
42671;BME280;28283;55.426;37.756;2023-01-31T02:01:54;97544.63;;;-2.22;84.15
42671;BME280;28283;55.426;37.756;2023-01-31T02:06:56;97531.44;;;-2.39;84.41
42671;BME280;28283;55.426;37.756;2023-01-31T02:11:57;97559.75;;;-2.08;84.32
42671;BME280;28283;55.426;37.756;2023-01-31T02:16:58;97501.19;;;-2.43;83.72
42671;BME280;28283;55.426;37.756;2023-01-31T02:43:19;97533.25;;;-2.23;84.68
42671;BME280;28283;55.426;37.756;2023-01-31T02:53:34;97540.66;;;-2.18;84.19
42671;BME280;28283;55.426;37.756;2023-01-31T02:58:37;97509.09;;;-2.51;84.75
42671;BME280;28283;55.426;37.756;2023-01-31T03:03:38;97503.81;;;-2.43;84.64
42671;BME280;28283;55.426;37.756;2023-01-31T03:08:42;97543.63;;;-2.21;84.61
42671;BME280;28283;55.426;37.756;2023-01-31T03:19:35;97510.72;;;-2.42;85.12
42671;BME280;28283;55.426;37.756;2023-01-31T03:24:38;97507.75;;;-2.39;85.42
42671;BME280;28283;55.426;37.756;2023-01-31T03:29:41;97520.75;;;-2.45;84.97
42671;BME280;28283;55.426;37.756;2023-01-31T03:34:43;97537.03;;;-2.25;84.66
42671;BME280;28283;55.426;37.756;2023-01-31T03:39:46;97542.97;;;-2.15;84.71
42671;BME280;28283;55.426;37.756;2023-01-31T03:45:05;97494.94;;;-2.58;85.22
42671;BME280;28283;55.426;37.756;2023-01-31T03:50:11;97554.66;;;-2.26;85.49
42671;BME280;28283;55.426;37.756;2023-01-31T03:55:19;97558.78;;;-2.15;84.99
42671;BME280;28283;55.426;37.756;2023-01-31T04:00:23;97561.38;;;-2.23;85.11
42671;BME280;28283;55.426;37.756;2023-01-31T04:05:26;97485.56;;;-2.69;85.14
42671;BME280;28283;55.426;37.756;2023-01-31T04:10:30;97567.81;;;-2.18;85.14
42671;BME280;28283;55.426;37.756;2023-01-31T04:15:31;97562.06;;;-2.29;84.70
42671;BME280;28283;55.426;37.756;2023-01-31T04:20:32;97584.41;;;-2.09;84.58
42671;BME280;28283;55.426;37.756;2023-01-31T04:25:33;97578.00;;;-2.15;84.76
42671;BME280;28283;55.426;37.756;2023-01-31T04:30:33;97582.94;;;-2.20;85.05
42671;BME280;28283;55.426;37.756;2023-01-31T04:35:34;97580.16;;;-2.18;84.98
42671;BME280;28283;55.426;37.756;2023-01-31T04:40:34;97600.38;;;-2.19;84.89
42671;BME280;28283;55.426;37.756;2023-01-31T04:45:35;97587.88;;;-2.25;84.75
42671;BME280;28283;55.426;37.756;2023-01-31T04:50:36;97598.56;;;-2.26;84.92
42671;BME280;28283;55.426;37.756;2023-01-31T04:55:36;97605.81;;;-2.20;85.15
42671;BME280;28283;55.426;37.756;2023-01-31T05:00:37;97613.38;;;-2.17;84.86
42671;BME280;28283;55.426;37.756;2023-01-31T05:05:38;97598.41;;;-2.25;84.90
42671;BME280;28283;55.426;37.756;2023-01-31T05:10:39;97608.78;;;-2.15;84.42
42671;BME280;28283;55.426;37.756;2023-01-31T05:15:40;97578.78;;;-2.39;84.76
42671;BME280;28283;55.426;37.756;2023-01-31T05:20:40;97604.81;;;-2.19;84.48
42671;BME280;28283;55.426;37.756;2023-01-31T05:25:43;97618.81;;;-2.11;84.62
42671;BME280;28283;55.426;37.756;2023-01-31T05:30:43;97629.34;;;-2.19;85.10
42671;BME280;28283;55.426;37.756;2023-01-31T05:35:44;97555.59;;;-2.52;84.83
42671;BME280;28283;55.426;37.756;2023-01-31T05:40:45;97604.16;;;-2.05;84.73
42671;BME280;28283;55.426;37.756;2023-01-31T05:45:47;97632.47;;;-2.15;84.41
42671;BME280;28283;55.426;37.756;2023-01-31T05:50:48;97621.75;;;-2.14;84.79
42671;BME280;28283;55.426;37.756;2023-01-31T05:55:50;97579.78;;;-2.32;84.65
42671;BME280;28283;55.426;37.756;2023-01-31T06:00:54;97630.16;;;-2.10;85.23
42671;BME280;28283;55.426;37.756;2023-01-31T06:05:56;97633.47;;;-2.08;85.04
42671;BME280;28283;55.426;37.756;2023-01-31T06:10:56;97637.41;;;-2.12;85.06
42671;BME280;28283;55.426;37.756;2023-01-31T06:15:57;97649.41;;;-2.01;84.94
42671;BME280;28283;55.426;37.756;2023-01-31T06:20:58;97667.69;;;-2.08;84.81
42671;BME280;28283;55.426;37.756;2023-01-31T06:25:58;97647.25;;;-2.14;85.51
42671;BME280;28283;55.426;37.756;2023-01-31T06:31:05;97580.59;;;-2.39;85.20
42671;BME280;28283;55.426;37.756;2023-01-31T06:36:06;97644.63;;;-2.22;84.98
42671;BME280;28283;55.426;37.756;2023-01-31T06:41:07;97663.91;;;-1.89;84.66
42671;BME280;28283;55.426;37.756;2023-01-31T06:46:07;97678.88;;;-1.98;84.88
42671;BME280;28283;55.426;37.756;2023-01-31T06:51:08;97674.63;;;-1.99;84.56
42671;BME280;28283;55.426;37.756;2023-01-31T06:56:09;97680.84;;;-2.08;84.85
42671;BME280;28283;55.426;37.756;2023-01-31T07:01:13;97709.50;;;-1.88;84.22
42671;BME280;28283;55.426;37.756;2023-01-31T07:06:14;97684.97;;;-2.05;85.00
42671;BME280;28283;55.426;37.756;2023-01-31T07:11:15;97694.53;;;-1.96;84.71
42671;BME280;28283;55.426;37.756;2023-01-31T07:16:16;97668.66;;;-2.09;84.48
42671;BME280;28283;55.426;37.756;2023-01-31T07:21:21;97629.78;;;-2.40;84.53
42671;BME280;28283;55.426;37.756;2023-01-31T07:26:24;97619.56;;;-2.51;84.27
42671;BME280;28283;55.426;37.756;2023-01-31T07:31:40;97634.03;;;-2.47;84.18
42671;BME280;28283;55.426;37.756;2023-01-31T07:36:42;97625.84;;;-2.44;84.28
42671;BME280;28283;55.426;37.756;2023-01-31T07:41:47;97657.63;;;-2.13;84.32
42671;BME280;28283;55.426;37.756;2023-01-31T07:46:48;97733.91;;;-1.62;83.92
42671;BME280;28283;55.426;37.756;2023-01-31T07:51:48;97692.88;;;-1.97;84.35
42671;BME280;28283;55.426;37.756;2023-01-31T07:56:49;97707.88;;;-1.81;84.32
42671;BME280;28283;55.426;37.756;2023-01-31T08:01:50;97709.84;;;-1.83;84.31
42671;BME280;28283;55.426;37.756;2023-01-31T08:07:09;97750.91;;;-1.56;84.08
42671;BME280;28283;55.426;37.756;2023-01-31T08:12:11;97760.75;;;-1.58;83.97
42671;BME280;28283;55.426;37.756;2023-01-31T08:17:12;97775.41;;;-1.47;84.18
42671;BME280;28283;55.426;37.756;2023-01-31T08:22:12;97771.81;;;-1.46;84.43
42671;BME280;28283;55.426;37.756;2023-01-31T08:27:13;97753.03;;;-1.60;84.46
42671;BME280;28283;55.426;37.756;2023-01-31T08:32:14;97723.69;;;-1.57;83.64
42671;BME280;28283;55.426;37.756;2023-01-31T08:37:14;97759.28;;;-1.28;84.31
42671;BME280;28283;55.426;37.756;2023-01-31T08:42:15;97729.81;;;-1.40;83.29
42671;BME280;28283;55.426;37.756;2023-01-31T08:47:16;97707.41;;;-1.52;83.57
42671;BME280;28283;55.426;37.756;2023-01-31T08:52:17;97707.22;;;-1.42;82.85
42671;BME280;28283;55.426;37.756;2023-01-31T08:57:36;97743.47;;;-1.28;82.98
42671;BME280;28283;55.426;37.756;2023-01-31T09:02:36;97736.56;;;-1.29;82.54
42671;BME280;28283;55.426;37.756;2023-01-31T09:07:37;97679.91;;;-1.66;82.38
42671;BME280;28283;55.426;37.756;2023-01-31T09:13:01;97804.44;;;-0.98;82.25
42671;BME280;28283;55.426;37.756;2023-01-31T09:18:20;97744.13;;;-1.01;82.42
42671;BME280;28283;55.426;37.756;2023-01-31T09:23:29;97668.38;;;-1.65;82.58
42671;BME280;28283;55.426;37.756;2023-01-31T09:28:35;97661.28;;;-1.73;81.96
42671;BME280;28283;55.426;37.756;2023-01-31T09:33:43;97760.47;;;-1.06;82.73
42671;BME280;28283;55.426;37.756;2023-01-31T09:38:43;97771.59;;;-0.79;82.77
42671;BME280;28283;55.426;37.756;2023-01-31T09:43:50;97771.44;;;-0.78;82.49
42671;BME280;28283;55.426;37.756;2023-01-31T09:49:47;97764.69;;;-0.88;82.78
42671;BME280;28283;55.426;37.756;2023-01-31T09:54:50;97653.06;;;-1.45;82.25
42671;BME280;28283;55.426;37.756;2023-01-31T10:10:55;97588.03;;;-1.69;81.76
42671;BME280;28283;55.426;37.756;2023-01-31T10:16:04;97745.34;;;-0.56;81.16
42671;BME280;28283;55.426;37.756;2023-01-31T10:21:39;97765.47;;;-0.55;81.65
42671;BME280;28283;55.426;37.756;2023-01-31T10:26:44;97738.47;;;-0.73;81.71
42671;BME280;28283;55.426;37.756;2023-01-31T10:32:18;97745.00;;;-0.53;82.10
42671;BME280;28283;55.426;37.756;2023-01-31T10:37:42;97771.63;;;-0.23;80.75
42671;BME280;28283;55.426;37.756;2023-01-31T21:15:58;98075.53;;;-0.75;86.88
42671;BME280;28283;55.426;37.756;2023-01-31T21:21:02;98088.59;;;-0.66;87.23
42671;BME280;28283;55.426;37.756;2023-01-31T21:26:08;98069.13;;;-0.73;87.32
42671;BME280;28283;55.426;37.756;2023-01-31T21:31:11;98078.50;;;-0.79;87.11
42671;BME280;28283;55.426;37.756;2023-01-31T21:36:18;98084.13;;;-0.65;87.21
42671;BME280;28283;55.426;37.756;2023-01-31T21:41:19;98111.69;;;-0.60;87.52
42671;BME280;28283;55.426;37.756;2023-01-31T21:46:39;98045.78;;;-1.02;87.02
42671;BME280;28283;55.426;37.756;2023-01-31T21:51:39;98057.03;;;-0.84;87.61
42671;BME280;28283;55.426;37.756;2023-01-31T21:56:40;98110.56;;;-0.57;87.39
42671;BME280;28283;55.426;37.756;2023-01-31T22:01:41;98095.72;;;-0.50;87.19
42671;BME280;28283;55.426;37.756;2023-01-31T22:06:41;98117.97;;;-0.52;86.98
42671;BME280;28283;55.426;37.756;2023-01-31T22:11:42;98108.94;;;-0.50;87.32
42671;BME280;28283;55.426;37.756;2023-01-31T22:16:43;98111.22;;;-0.55;87.82
42671;BME280;28283;55.426;37.756;2023-01-31T22:21:44;98102.97;;;-0.60;87.55
42671;BME280;28283;55.426;37.756;2023-01-31T22:26:45;98111.88;;;-0.53;87.87
42671;BME280;28283;55.426;37.756;2023-01-31T22:31:45;98113.22;;;-0.49;87.54
42671;BME280;28283;55.426;37.756;2023-01-31T22:36:46;98112.03;;;-0.54;88.08
42671;BME280;28283;55.426;37.756;2023-01-31T22:41:46;98104.63;;;-0.51;87.57
42671;BME280;28283;55.426;37.756;2023-01-31T22:46:47;98111.56;;;-0.50;87.62
42671;BME280;28283;55.426;37.756;2023-01-31T22:51:48;98120.16;;;-0.48;87.42
42671;BME280;28283;55.426;37.756;2023-01-31T22:56:48;98110.41;;;-0.55;87.81
42671;BME280;28283;55.426;37.756;2023-01-31T23:01:49;98123.41;;;-0.54;87.86
42671;BME280;28283;55.426;37.756;2023-01-31T23:06:49;98105.09;;;-0.64;87.23
42671;BME280;28283;55.426;37.756;2023-01-31T23:11:50;98107.56;;;-0.62;87.51
42671;BME280;28283;55.426;37.756;2023-01-31T23:16:51;98131.19;;;-0.52;87.51
42671;BME280;28283;55.426;37.756;2023-01-31T23:22:13;98117.13;;;-0.61;87.24
42671;BME280;28283;55.426;37.756;2023-01-31T23:27:14;98105.22;;;-0.73;87.35
42671;BME280;28283;55.426;37.756;2023-01-31T23:32:14;98118.94;;;-0.62;87.81
42671;BME280;28283;55.426;37.756;2023-01-31T23:37:15;98142.91;;;-0.47;87.48
42671;BME280;28283;55.426;37.756;2023-01-31T23:42:16;98143.91;;;-0.40;87.35
42671;BME280;28283;55.426;37.756;2023-01-31T23:47:16;98136.50;;;-0.44;87.53
42671;BME280;28283;55.426;37.756;2023-01-31T23:52:17;98128.06;;;-0.48;87.20
42671;BME280;28283;55.426;37.756;2023-01-31T23:57:18;98113.66;;;-0.62;87.47
